Jining, China
Current Conditions -  °F | °C
As of 5:00 PM on Monday 20 Oct 2014 (Local Time) from ZBHH Reporting Station
Clear Clear  
Wind Chill: 63°   Ceiling: Unl
Heat Index: 63°   Visibility: 6mi
Dew Point: 30°   Wind: 7mph
Humidity: 30%   Direction: 240°WSW
Pressure: 30.06"   Gusts: NA
Location:  41.03°N, 113.07°E
Report Text: ZBHH 200900Z 24003MPS CAVOK 17/M01 Q1018 NOSIG
Loading
Personal Weather Stations






























Interactive Weather Map
Tropical Storm Tracking
New forecast layout! Learn more

10-Day Weather Forecast

Advertisements
Track Severe Weather on mobile